Airfield :
LOGIN :

Register | Disclaimer

   EN    FR    IT 

 










Legend :    VFR   Marginal VFR   IFR   Intensive IFR   Very Intensive IFR
Visi :
Ceiling :
>= 8 km
>= 3000ft
5 to 8 km
1000 to 3000 ft
1500m to 5 km
500 to 1000 ft
800 to 1500m
200 to 500 ft
< 800m
< 200 ft
Symbols :   Thunderstorms  Fog  Heavy snow  Heavy precipitations  Wind > 20 kt
SIGMETs :     Misc.  Thunderstorms  Icing  Turbulence  Mountain Waves  Volcanic Ashes







- Airport Elevation : 659 ft
- IATA code : LGG


EBLG - Liège

CURRENT METAR :
  • 172220Z 19015KT 3000 -RASN BKN007 BKN010 01/M01 Q1020 TEMPO 2000 RADZ BKN006

EXPIRED METARs :
  • 172150Z 20015KT 5000 -RA SCT010 BKN018 01/M01 Q1021 TEMPO 3000 RADZ BKN007
  • 172120Z 20015KT 9999 BKN030 01/M00 Q1022 NOSIG
  • 172050Z 20015KT 9999 FEW040 01/M00 Q1022 NOSIG
  • 172020Z 20016KT 9999 FEW040 01/M00 Q1023 NOSIG

TAF TAF EBLG
Valid from the 17 at 18:00 until the 19 at 00:00 UTC


171710Z 1718/1824 20010KT 7000 SCT008 BKN045
BECMG 1721/1723 SCT008 BKN012
TEMPO 1722/1801 20015G25KT 3000 RADZ BKN006
BECMG 1801/1803 27010KT SCT004 BKN006
BECMG 1804/1806 33009KT
BECMG 1806/1808 SCT007 BKN015
TEMPO 1808/1816 4000 -DZRA BKN007
PROB40 1821/1824 3000 BR
No reported NOTAMs for that airfield.



MET'MAP, your aeronautical weather chart ! - Copyright ORBIFLY December 2007 - Disclaimer

ORBIFLY MET'MAP TEAM :

Programming & Development : Alexandra Zaïnal
Concept & Development : Baudouin d'Aumeries
Co-Development & Prog : Marc-Olivier Méhu
Technical & hardware support : Manuel Goepfert

Contact : metmap@orbifly.com




SOURCES & CREDITS :

   NOAA